sensor_id;sensor_type;location;lat;lon;timestamp;P1;durP1;ratioP1;P2;durP2;ratioP2
25758;SDS011;13604;52.496;13.456;2024-02-15T00:02:07;25.30;;;15.43;;
25758;SDS011;13604;52.496;13.456;2024-02-15T00:04:32;22.95;;;15.43;;
25758;SDS011;13604;52.496;13.456;2024-02-15T00:06:58;26.50;;;16.58;;
25758;SDS011;13604;52.496;13.456;2024-02-15T00:09:24;28.25;;;16.25;;
25758;SDS011;13604;52.496;13.456;2024-02-15T00:11:49;32.22;;;17.67;;
25758;SDS011;13604;52.496;13.456;2024-02-15T00:14:15;27.77;;;18.17;;
25758;SDS011;13604;52.496;13.456;2024-02-15T00:16:40;31.30;;;19.20;;
25758;SDS011;13604;52.496;13.456;2024-02-15T00:19:05;25.67;;;17.17;;
25758;SDS011;13604;52.496;13.456;2024-02-15T00:21:32;27.40;;;17.67;;
25758;SDS011;13604;52.496;13.456;2024-02-15T00:23:57;26.38;;;17.63;;
25758;SDS011;13604;52.496;13.456;2024-02-15T00:26:24;30.42;;;17.98;;
25758;SDS011;13604;52.496;13.456;2024-02-15T00:28:50;27.52;;;17.83;;
25758;SDS011;13604;52.496;13.456;2024-02-15T00:31:15;30.20;;;19.90;;
25758;SDS011;13604;52.496;13.456;2024-02-15T00:33:40;30.60;;;18.45;;
25758;SDS011;13604;52.496;13.456;2024-02-15T00:36:05;27.70;;;17.88;;
25758;SDS011;13604;52.496;13.456;2024-02-15T00:38:31;33.28;;;19.95;;
25758;SDS011;13604;52.496;13.456;2024-02-15T00:40:57;31.85;;;19.48;;
25758;SDS011;13604;52.496;13.456;2024-02-15T00:43:23;29.65;;;18.92;;
25758;SDS011;13604;52.496;13.456;2024-02-15T00:45:49;30.60;;;19.33;;
25758;SDS011;13604;52.496;13.456;2024-02-15T00:48:14;33.45;;;19.90;;
25758;SDS011;13604;52.496;13.456;2024-02-15T00:50:39;31.65;;;19.95;;
25758;SDS011;13604;52.496;13.456;2024-02-15T00:53:05;32.47;;;19.48;;
25758;SDS011;13604;52.496;13.456;2024-02-15T00:55:30;33.58;;;18.75;;
25758;SDS011;13604;52.496;13.456;2024-02-15T00:57:55;34.10;;;20.38;;
25758;SDS011;13604;52.496;13.456;2024-02-15T01:00:21;33.13;;;19.90;;
25758;SDS011;13604;52.496;13.456;2024-02-15T01:02:46;34.00;;;20.15;;
25758;SDS011;13604;52.496;13.456;2024-02-15T01:05:11;30.10;;;20.42;;
25758;SDS011;13604;52.496;13.456;2024-02-15T01:07:40;32.17;;;19.13;;
25758;SDS011;13604;52.496;13.456;2024-02-15T01:10:05;30.25;;;19.77;;
25758;SDS011;13604;52.496;13.456;2024-02-15T01:12:31;35.30;;;18.02;;
25758;SDS011;13604;52.496;13.456;2024-02-15T01:14:58;30.83;;;19.02;;
25758;SDS011;13604;52.496;13.456;2024-02-15T01:17:23;28.52;;;18.73;;
25758;SDS011;13604;52.496;13.456;2024-02-15T01:19:48;29.73;;;19.13;;
25758;SDS011;13604;52.496;13.456;2024-02-15T01:22:14;27.13;;;19.10;;
25758;SDS011;13604;52.496;13.456;2024-02-15T01:24:39;33.58;;;19.25;;
25758;SDS011;13604;52.496;13.456;2024-02-15T01:27:04;27.65;;;19.08;;
25758;SDS011;13604;52.496;13.456;2024-02-15T01:29:31;27.60;;;19.75;;
25758;SDS011;13604;52.496;13.456;2024-02-15T01:31:57;30.02;;;18.27;;
25758;SDS011;13604;52.496;13.456;2024-02-15T01:34:22;32.00;;;20.15;;
25758;SDS011;13604;52.496;13.456;2024-02-15T01:36:48;29.38;;;19.67;;
25758;SDS011;13604;52.496;13.456;2024-02-15T01:39:14;30.52;;;19.60;;
25758;SDS011;13604;52.496;13.456;2024-02-15T01:41:39;32.97;;;20.55;;
25758;SDS011;13604;52.496;13.456;2024-02-15T01:44:04;27.52;;;18.30;;
25758;SDS011;13604;52.496;13.456;2024-02-15T01:46:31;31.38;;;20.23;;
25758;SDS011;13604;52.496;13.456;2024-02-15T01:48:57;36.08;;;21.38;;
25758;SDS011;13604;52.496;13.456;2024-02-15T01:51:22;35.63;;;21.35;;
25758;SDS011;13604;52.496;13.456;2024-02-15T01:53:49;36.50;;;20.50;;
25758;SDS011;13604;52.496;13.456;2024-02-15T01:56:15;33.15;;;20.52;;
25758;SDS011;13604;52.496;13.456;2024-02-15T01:58:42;34.88;;;21.42;;
25758;SDS011;13604;52.496;13.456;2024-02-15T02:01:08;36.53;;;21.63;;
25758;SDS011;13604;52.496;13.456;2024-02-15T02:03:33;34.72;;;21.17;;
25758;SDS011;13604;52.496;13.456;2024-02-15T02:05:59;34.38;;;21.33;;
25758;SDS011;13604;52.496;13.456;2024-02-15T02:08:25;33.80;;;20.42;;
25758;SDS011;13604;52.496;13.456;2024-02-15T02:10:51;34.47;;;23.25;;
25758;SDS011;13604;52.496;13.456;2024-02-15T02:13:17;36.97;;;22.17;;
25758;SDS011;13604;52.496;13.456;2024-02-15T02:15:42;33.45;;;22.13;;
25758;SDS011;13604;52.496;13.456;2024-02-15T02:18:07;36.90;;;21.70;;
25758;SDS011;13604;52.496;13.456;2024-02-15T02:20:34;38.40;;;22.73;;
25758;SDS011;13604;52.496;13.456;2024-02-15T02:23:03;39.15;;;23.67;;
25758;SDS011;13604;52.496;13.456;2024-02-15T02:25:32;40.00;;;23.15;;
25758;SDS011;13604;52.496;13.456;2024-02-15T02:27:59;36.40;;;22.58;;
25758;SDS011;13604;52.496;13.456;2024-02-15T02:30:25;37.22;;;23.10;;
25758;SDS011;13604;52.496;13.456;2024-02-15T02:32:54;39.85;;;23.15;;
25758;SDS011;13604;52.496;13.456;2024-02-15T02:35:19;42.80;;;24.40;;
25758;SDS011;13604;52.496;13.456;2024-02-15T02:37:45;43.72;;;24.35;;
25758;SDS011;13604;52.496;13.456;2024-02-15T02:40:11;42.70;;;22.63;;
25758;SDS011;13604;52.496;13.456;2024-02-15T02:42:51;41.10;;;24.80;;
25758;SDS011;13604;52.496;13.456;2024-02-15T02:45:18;37.83;;;24.45;;
25758;SDS011;13604;52.496;13.456;2024-02-15T02:47:45;39.20;;;23.75;;
25758;SDS011;13604;52.496;13.456;2024-02-15T02:50:11;34.65;;;22.92;;
25758;SDS011;13604;52.496;13.456;2024-02-15T02:52:37;41.83;;;24.20;;
25758;SDS011;13604;52.496;13.456;2024-02-15T02:55:04;40.70;;;25.08;;
25758;SDS011;13604;52.496;13.456;2024-02-15T02:57:32;39.50;;;24.50;;
25758;SDS011;13604;52.496;13.456;2024-02-15T02:59:57;38.70;;;23.88;;
25758;SDS011;13604;52.496;13.456;2024-02-15T03:02:22;47.05;;;25.27;;
25758;SDS011;13604;52.496;13.456;2024-02-15T03:04:48;41.65;;;24.73;;
25758;SDS011;13604;52.496;13.456;2024-02-15T03:07:13;43.67;;;25.63;;
25758;SDS011;13604;52.496;13.456;2024-02-15T03:09:41;41.13;;;25.20;;
25758;SDS011;13604;52.496;13.456;2024-02-15T03:12:06;43.83;;;25.38;;
25758;SDS011;13604;52.496;13.456;2024-02-15T03:14:32;44.88;;;25.45;;
25758;SDS011;13604;52.496;13.456;2024-02-15T03:17:00;43.80;;;24.90;;
25758;SDS011;13604;52.496;13.456;2024-02-15T03:19:28;40.55;;;23.40;;
25758;SDS011;13604;52.496;13.456;2024-02-15T03:21:53;45.33;;;24.52;;
25758;SDS011;13604;52.496;13.456;2024-02-15T03:24:18;49.45;;;26.02;;
25758;SDS011;13604;52.496;13.456;2024-02-15T03:26:44;41.15;;;23.63;;
25758;SDS011;13604;52.496;13.456;2024-02-15T03:29:10;48.03;;;25.77;;
25758;SDS011;13604;52.496;13.456;2024-02-15T03:31:35;39.45;;;24.23;;
25758;SDS011;13604;52.496;13.456;2024-02-15T03:34:02;39.17;;;23.63;;
25758;SDS011;13604;52.496;13.456;2024-02-15T03:36:28;40.47;;;23.95;;
25758;SDS011;13604;52.496;13.456;2024-02-15T03:38:54;46.30;;;25.67;;
25758;SDS011;13604;52.496;13.456;2024-02-15T03:41:19;39.72;;;23.77;;
25758;SDS011;13604;52.496;13.456;2024-02-15T03:43:45;43.85;;;24.33;;
25758;SDS011;13604;52.496;13.456;2024-02-15T03:46:11;40.72;;;23.52;;
25758;SDS011;13604;52.496;13.456;2024-02-15T03:48:38;41.88;;;25.50;;
25758;SDS011;13604;52.496;13.456;2024-02-15T03:51:03;39.40;;;23.40;;
25758;SDS011;13604;52.496;13.456;2024-02-15T03:53:30;40.65;;;24.63;;
25758;SDS011;13604;52.496;13.456;2024-02-15T03:55:58;44.55;;;24.92;;
25758;SDS011;13604;52.496;13.456;2024-02-15T03:58:23;46.35;;;24.40;;
25758;SDS011;13604;52.496;13.456;2024-02-15T04:00:49;44.17;;;24.48;;
25758;SDS011;13604;52.496;13.456;2024-02-15T04:03:14;38.10;;;23.58;;
25758;SDS011;13604;52.496;13.456;2024-02-15T04:05:39;39.17;;;24.00;;
25758;SDS011;13604;52.496;13.456;2024-02-15T04:08:05;43.42;;;24.17;;
25758;SDS011;13604;52.496;13.456;2024-02-15T04:10:30;45.80;;;24.70;;
25758;SDS011;13604;52.496;13.456;2024-02-15T04:12:55;44.03;;;24.02;;
25758;SDS011;13604;52.496;13.456;2024-02-15T04:15:23;43.03;;;25.08;;
25758;SDS011;13604;52.496;13.456;2024-02-15T04:17:48;39.55;;;22.38;;
25758;SDS011;13604;52.496;13.456;2024-02-15T04:20:20;45.08;;;24.20;;
25758;SDS011;13604;52.496;13.456;2024-02-15T04:22:46;43.80;;;26.20;;
25758;SDS011;13604;52.496;13.456;2024-02-15T04:25:12;44.78;;;24.00;;
25758;SDS011;13604;52.496;13.456;2024-02-15T04:27:42;39.65;;;22.20;;
25758;SDS011;13604;52.496;13.456;2024-02-15T04:30:09;46.10;;;25.02;;
25758;SDS011;13604;52.496;13.456;2024-02-15T04:32:35;48.00;;;25.73;;
25758;SDS011;13604;52.496;13.456;2024-02-15T04:35:01;50.10;;;25.55;;
25758;SDS011;13604;52.496;13.456;2024-02-15T04:37:28;43.50;;;24.40;;
25758;SDS011;13604;52.496;13.456;2024-02-15T04:39:54;46.35;;;25.85;;
25758;SDS011;13604;52.496;13.456;2024-02-15T04:42:20;41.08;;;23.52;;
25758;SDS011;13604;52.496;13.456;2024-02-15T04:44:46;44.85;;;25.08;;
25758;SDS011;13604;52.496;13.456;2024-02-15T04:47:11;52.42;;;27.38;;
25758;SDS011;13604;52.496;13.456;2024-02-15T04:49:36;44.22;;;25.77;;
25758;SDS011;13604;52.496;13.456;2024-02-15T04:52:04;46.78;;;25.83;;
25758;SDS011;13604;52.496;13.456;2024-02-15T04:54:30;44.38;;;24.33;;
25758;SDS011;13604;52.496;13.456;2024-02-15T04:56:56;50.90;;;26.95;;
25758;SDS011;13604;52.496;13.456;2024-02-15T04:59:22;46.78;;;25.63;;
25758;SDS011;13604;52.496;13.456;2024-02-15T05:01:50;43.83;;;24.15;;
25758;SDS011;13604;52.496;13.456;2024-02-15T05:04:16;47.35;;;26.98;;
25758;SDS011;13604;52.496;13.456;2024-02-15T05:06:42;52.35;;;27.27;;
25758;SDS011;13604;52.496;13.456;2024-02-15T05:09:08;48.00;;;24.73;;
25758;SDS011;13604;52.496;13.456;2024-02-15T05:11:36;43.72;;;22.80;;
25758;SDS011;13604;52.496;13.456;2024-02-15T05:14:03;43.03;;;23.65;;
25758;SDS011;13604;52.496;13.456;2024-02-15T05:16:30;46.03;;;23.98;;
25758;SDS011;13604;52.496;13.456;2024-02-15T05:18:56;40.83;;;23.52;;
25758;SDS011;13604;52.496;13.456;2024-02-15T05:21:21;44.60;;;23.98;;
25758;SDS011;13604;52.496;13.456;2024-02-15T05:23:47;51.47;;;24.30;;
25758;SDS011;13604;52.496;13.456;2024-02-15T05:26:13;43.65;;;23.30;;
25758;SDS011;13604;52.496;13.456;2024-02-15T05:28:41;40.67;;;23.40;;
25758;SDS011;13604;52.496;13.456;2024-02-15T05:31:13;42.67;;;22.67;;
25758;SDS011;13604;52.496;13.456;2024-02-15T05:33:42;41.28;;;23.13;;
25758;SDS011;13604;52.496;13.456;2024-02-15T05:36:09;42.58;;;21.77;;
25758;SDS011;13604;52.496;13.456;2024-02-15T05:38:37;42.65;;;23.27;;
25758;SDS011;13604;52.496;13.456;2024-02-15T05:41:03;39.15;;;22.30;;
25758;SDS011;13604;52.496;13.456;2024-02-15T05:43:28;37.58;;;21.25;;
25758;SDS011;13604;52.496;13.456;2024-02-15T05:45:54;39.92;;;22.08;;
25758;SDS011;13604;52.496;13.456;2024-02-15T05:48:19;40.00;;;21.23;;
25758;SDS011;13604;52.496;13.456;2024-02-15T05:50:46;36.15;;;20.88;;
25758;SDS011;13604;52.496;13.456;2024-02-15T05:53:11;38.40;;;20.52;;
25758;SDS011;13604;52.496;13.456;2024-02-15T05:55:37;37.17;;;19.58;;
25758;SDS011;13604;52.496;13.456;2024-02-15T05:58:05;36.63;;;19.58;;
25758;SDS011;13604;52.496;13.456;2024-02-15T06:00:33;36.95;;;19.30;;
25758;SDS011;13604;52.496;13.456;2024-02-15T06:02:59;33.28;;;18.95;;
25758;SDS011;13604;52.496;13.456;2024-02-15T06:05:26;43.20;;;20.60;;
25758;SDS011;13604;52.496;13.456;2024-02-15T06:07:52;36.63;;;20.58;;
25758;SDS011;13604;52.496;13.456;2024-02-15T06:10:17;32.58;;;19.17;;
25758;SDS011;13604;52.496;13.456;2024-02-15T06:12:43;38.97;;;20.60;;
25758;SDS011;13604;52.496;13.456;2024-02-15T06:15:08;34.65;;;18.95;;
25758;SDS011;13604;52.496;13.456;2024-02-15T06:17:39;36.63;;;19.90;;
25758;SDS011;13604;52.496;13.456;2024-02-15T06:20:05;42.05;;;20.98;;
25758;SDS011;13604;52.496;13.456;2024-02-15T06:22:31;36.25;;;19.92;;
25758;SDS011;13604;52.496;13.456;2024-02-15T06:24:56;40.50;;;19.95;;
25758;SDS011;13604;52.496;13.456;2024-02-15T06:27:22;39.08;;;20.08;;
25758;SDS011;13604;52.496;13.456;2024-02-15T06:29:49;37.30;;;20.27;;
25758;SDS011;13604;52.496;13.456;2024-02-15T06:32:33;42.22;;;20.23;;
25758;SDS011;13604;52.496;13.456;2024-02-15T06:35:16;37.83;;;19.87;;
25758;SDS011;13604;52.496;13.456;2024-02-15T06:38:00;24.15;;;14.15;;
25758;SDS011;13604;52.496;13.456;2024-02-15T06:40:44;40.75;;;20.45;;
25758;SDS011;13604;52.496;13.456;2024-02-15T06:43:09;39.08;;;19.58;;
25758;SDS011;13604;52.496;13.456;2024-02-15T06:45:35;35.85;;;19.17;;
25758;SDS011;13604;52.496;13.456;2024-02-15T06:48:02;37.30;;;19.90;;
25758;SDS011;13604;52.496;13.456;2024-02-15T06:50:28;34.45;;;18.98;;
25758;SDS011;13604;52.496;13.456;2024-02-15T06:52:53;36.60;;;19.55;;
25758;SDS011;13604;52.496;13.456;2024-02-15T06:55:19;32.90;;;19.10;;
25758;SDS011;13604;52.496;13.456;2024-02-15T06:57:47;34.58;;;20.05;;
25758;SDS011;13604;52.496;13.456;2024-02-15T07:00:12;37.97;;;20.40;;
25758;SDS011;13604;52.496;13.456;2024-02-15T07:02:40;33.47;;;19.10;;
25758;SDS011;13604;52.496;13.456;2024-02-15T07:05:06;37.03;;;19.95;;
25758;SDS011;13604;52.496;13.456;2024-02-15T07:07:31;39.13;;;21.35;;
25758;SDS011;13604;52.496;13.456;2024-02-15T07:09:57;36.97;;;21.08;;
25758;SDS011;13604;52.496;13.456;2024-02-15T07:12:22;36.70;;;19.42;;
25758;SDS011;13604;52.496;13.456;2024-02-15T07:14:48;39.28;;;20.05;;
25758;SDS011;13604;52.496;13.456;2024-02-15T07:17:13;37.63;;;19.50;;
25758;SDS011;13604;52.496;13.456;2024-02-15T07:19:45;34.13;;;19.55;;
25758;SDS011;13604;52.496;13.456;2024-02-15T07:22:10;31.40;;;18.33;;
25758;SDS011;13604;52.496;13.456;2024-02-15T07:24:36;35.63;;;20.13;;
25758;SDS011;13604;52.496;13.456;2024-02-15T07:27:03;33.15;;;18.90;;
25758;SDS011;13604;52.496;13.456;2024-02-15T07:29:31;29.42;;;18.27;;
25758;SDS011;13604;52.496;13.456;2024-02-15T07:31:57;31.08;;;18.83;;
25758;SDS011;13604;52.496;13.456;2024-02-15T07:34:25;28.95;;;18.90;;
25758;SDS011;13604;52.496;13.456;2024-02-15T07:36:51;35.75;;;19.25;;
25758;SDS011;13604;52.496;13.456;2024-02-15T07:39:17;28.38;;;17.38;;
25758;SDS011;13604;52.496;13.456;2024-02-15T07:41:48;28.63;;;18.17;;
25758;SDS011;13604;52.496;13.456;2024-02-15T07:44:14;32.10;;;17.92;;
25758;SDS011;13604;52.496;13.456;2024-02-15T07:46:39;31.35;;;17.92;;
25758;SDS011;13604;52.496;13.456;2024-02-15T07:49:05;25.60;;;17.10;;
25758;SDS011;13604;52.496;13.456;2024-02-15T07:51:31;28.70;;;17.65;;
25758;SDS011;13604;52.496;13.456;2024-02-15T07:53:56;27.05;;;17.08;;
25758;SDS011;13604;52.496;13.456;2024-02-15T07:56:22;27.05;;;17.02;;
25758;SDS011;13604;52.496;13.456;2024-02-15T07:58:48;26.23;;;15.52;;
25758;SDS011;13604;52.496;13.456;2024-02-15T08:01:14;24.92;;;16.02;;
25758;SDS011;13604;52.496;13.456;2024-02-15T08:03:40;27.17;;;16.95;;
25758;SDS011;13604;52.496;13.456;2024-02-15T08:06:12;27.65;;;16.52;;
25758;SDS011;13604;52.496;13.456;2024-02-15T08:08:38;24.58;;;15.75;;
25758;SDS011;13604;52.496;13.456;2024-02-15T08:11:06;24.92;;;15.93;;
25758;SDS011;13604;52.496;13.456;2024-02-15T08:13:35;23.90;;;15.00;;
25758;SDS011;13604;52.496;13.456;2024-02-15T08:16:03;20.63;;;14.52;;
25758;SDS011;13604;52.496;13.456;2024-02-15T08:18:30;23.88;;;15.50;;
25758;SDS011;13604;52.496;13.456;2024-02-15T08:20:55;21.95;;;13.65;;
25758;SDS011;13604;52.496;13.456;2024-02-15T08:23:22;22.02;;;14.50;;
25758;SDS011;13604;52.496;13.456;2024-02-15T08:25:47;26.08;;;14.00;;
25758;SDS011;13604;52.496;13.456;2024-02-15T08:28:12;19.90;;;14.13;;
25758;SDS011;13604;52.496;13.456;2024-02-15T08:30:38;19.63;;;14.02;;
25758;SDS011;13604;52.496;13.456;2024-02-15T08:33:03;22.65;;;13.85;;
25758;SDS011;13604;52.496;13.456;2024-02-15T08:35:29;21.42;;;14.15;;
25758;SDS011;13604;52.496;13.456;2024-02-15T08:37:54;19.33;;;13.77;;
25758;SDS011;13604;52.496;13.456;2024-02-15T08:40:20;21.00;;;13.48;;
25758;SDS011;13604;52.496;13.456;2024-02-15T08:42:50;23.80;;;15.77;;
25758;SDS011;13604;52.496;13.456;2024-02-15T08:45:15;21.55;;;13.77;;
25758;SDS011;13604;52.496;13.456;2024-02-15T08:47:41;23.48;;;14.43;;
25758;SDS011;13604;52.496;13.456;2024-02-15T08:50:08;22.88;;;14.48;;
25758;SDS011;13604;52.496;13.456;2024-02-15T08:52:35;23.13;;;13.75;;
25758;SDS011;13604;52.496;13.456;2024-02-15T08:55:02;20.98;;;13.55;;
25758;SDS011;13604;52.496;13.456;2024-02-15T08:57:32;24.00;;;14.00;;
25758;SDS011;13604;52.496;13.456;2024-02-15T08:59:57;22.27;;;14.95;;
25758;SDS011;13604;52.496;13.456;2024-02-15T09:02:23;18.08;;;13.00;;
25758;SDS011;13604;52.496;13.456;2024-02-15T09:04:48;20.52;;;13.35;;
25758;SDS011;13604;52.496;13.456;2024-02-15T09:07:13;17.65;;;11.98;;
25758;SDS011;13604;52.496;13.456;2024-02-15T09:09:39;25.80;;;12.52;;
25758;SDS011;13604;52.496;13.456;2024-02-15T09:12:04;19.25;;;12.85;;
25758;SDS011;13604;52.496;13.456;2024-02-15T09:14:31;23.20;;;12.55;;
25758;SDS011;13604;52.496;13.456;2024-02-15T09:16:59;18.00;;;12.20;;
25758;SDS011;13604;52.496;13.456;2024-02-15T09:19:25;20.55;;;12.85;;
25758;SDS011;13604;52.496;13.456;2024-02-15T09:21:51;19.65;;;13.45;;
25758;SDS011;13604;52.496;13.456;2024-02-15T09:24:16;19.65;;;12.68;;
25758;SDS011;13604;52.496;13.456;2024-02-15T09:26:42;18.50;;;12.02;;
25758;SDS011;13604;52.496;13.456;2024-02-15T09:29:08;19.45;;;11.40;;
25758;SDS011;13604;52.496;13.456;2024-02-15T09:31:33;17.42;;;11.25;;
25758;SDS011;13604;52.496;13.456;2024-02-15T09:34:01;16.70;;;12.02;;
25758;SDS011;13604;52.496;13.456;2024-02-15T09:36:26;21.25;;;12.38;;
25758;SDS011;13604;52.496;13.456;2024-02-15T09:38:53;16.30;;;10.80;;
25758;SDS011;13604;52.496;13.456;2024-02-15T09:41:18;19.65;;;12.32;;
25758;SDS011;13604;52.496;13.456;2024-02-15T09:43:44;19.33;;;12.05;;
25758;SDS011;13604;52.496;13.456;2024-02-15T09:46:09;15.32;;;11.02;;
25758;SDS011;13604;52.496;13.456;2024-02-15T09:48:34;15.68;;;10.60;;
25758;SDS011;13604;52.496;13.456;2024-02-15T09:51:00;15.15;;;9.88;;
25758;SDS011;13604;52.496;13.456;2024-02-15T09:53:26;18.42;;;12.05;;
25758;SDS011;13604;52.496;13.456;2024-02-15T09:55:53;15.13;;;10.35;;
25758;SDS011;13604;52.496;13.456;2024-02-15T09:58:19;19.38;;;11.68;;
25758;SDS011;13604;52.496;13.456;2024-02-15T10:00:45;20.58;;;11.32;;
25758;SDS011;13604;52.496;13.456;2024-02-15T10:03:11;16.00;;;10.88;;
25758;SDS011;13604;52.496;13.456;2024-02-15T10:05:41;16.65;;;11.38;;
25758;SDS011;13604;52.496;13.456;2024-02-15T10:08:06;24.63;;;10.10;;
25758;SDS011;13604;52.496;13.456;2024-02-15T10:10:32;14.43;;;9.68;;
25758;SDS011;13604;52.496;13.456;2024-02-15T10:12:58;14.60;;;10.07;;
25758;SDS011;13604;52.496;13.456;2024-02-15T10:15:29;17.75;;;10.82;;
25758;SDS011;13604;52.496;13.456;2024-02-15T10:17:56;13.57;;;10.32;;
25758;SDS011;13604;52.496;13.456;2024-02-15T10:20:23;14.35;;;10.20;;
25758;SDS011;13604;52.496;13.456;2024-02-15T10:22:51;13.10;;;9.80;;
25758;SDS011;13604;52.496;13.456;2024-02-15T10:25:28;17.55;;;9.82;;
25758;SDS011;13604;52.496;13.456;2024-02-15T10:30:34;13.15;;;9.55;;
25758;SDS011;13604;52.496;13.456;2024-02-15T10:33:01;16.70;;;9.45;;
25758;SDS011;13604;52.496;13.456;2024-02-15T10:35:27;16.58;;;9.13;;
25758;SDS011;13604;52.496;13.456;2024-02-15T10:37:54;14.38;;;9.77;;
25758;SDS011;13604;52.496;13.456;2024-02-15T10:40:30;15.18;;;9.57;;
25758;SDS011;13604;52.496;13.456;2024-02-15T10:42:55;13.68;;;9.43;;
25758;SDS011;13604;52.496;13.456;2024-02-15T10:45:23;14.30;;;8.18;;
25758;SDS011;13604;52.496;13.456;2024-02-15T10:47:49;15.88;;;9.60;;
25758;SDS011;13604;52.496;13.456;2024-02-15T10:50:15;13.43;;;8.68;;
25758;SDS011;13604;52.496;13.456;2024-02-15T10:52:57;12.05;;;8.10;;
25758;SDS011;13604;52.496;13.456;2024-02-15T10:55:26;12.40;;;8.98;;
25758;SDS011;13604;52.496;13.456;2024-02-15T10:58:03;12.88;;;8.48;;
25758;SDS011;13604;52.496;13.456;2024-02-15T11:00:32;11.30;;;7.30;;
25758;SDS011;13604;52.496;13.456;2024-02-15T11:03:02;16.00;;;9.02;;
25758;SDS011;13604;52.496;13.456;2024-02-15T11:05:33;11.43;;;8.27;;
25758;SDS011;13604;52.496;13.456;2024-02-15T11:08:00;12.40;;;8.05;;
25758;SDS011;13604;52.496;13.456;2024-02-15T11:10:27;15.02;;;8.60;;
25758;SDS011;13604;52.496;13.456;2024-02-15T11:12:52;14.05;;;7.43;;
25758;SDS011;13604;52.496;13.456;2024-02-15T11:18:06;10.13;;;7.60;;
25758;SDS011;13604;52.496;13.456;2024-02-15T11:23:04;8.98;;;5.93;;
25758;SDS011;13604;52.496;13.456;2024-02-15T11:28:05;12.80;;;6.95;;
25758;SDS011;13604;52.496;13.456;2024-02-15T11:30:47;8.93;;;6.65;;
25758;SDS011;13604;52.496;13.456;2024-02-15T11:33:24;8.93;;;5.68;;
25758;SDS011;13604;52.496;13.456;2024-02-15T11:36:04;8.55;;;6.28;;
25758;SDS011;13604;52.496;13.456;2024-02-15T11:38:37;10.35;;;4.97;;
25758;SDS011;13604;52.496;13.456;2024-02-15T11:41:06;7.63;;;4.45;;
25758;SDS011;13604;52.496;13.456;2024-02-15T11:46:23;6.65;;;4.95;;
25758;SDS011;13604;52.496;13.456;2024-02-15T11:48:50;8.80;;;5.35;;
25758;SDS011;13604;52.496;13.456;2024-02-15T11:59:12;6.10;;;4.47;;
25758;SDS011;13604;52.496;13.456;2024-02-15T12:02:34;8.88;;;5.03;;
25758;SDS011;13604;52.496;13.456;2024-02-15T12:05:18;5.93;;;4.67;;
25758;SDS011;13604;52.496;13.456;2024-02-15T12:08:02;8.23;;;5.28;;
25758;SDS011;13604;52.496;13.456;2024-02-15T12:10:56;12.73;;;5.80;;
25758;SDS011;13604;52.496;13.456;2024-02-15T12:13:41;7.22;;;5.03;;
25758;SDS011;13604;52.496;13.456;2024-02-15T12:16:24;8.33;;;5.40;;
25758;SDS011;13604;52.496;13.456;2024-02-15T12:19:14;8.60;;;5.18;;
25758;SDS011;13604;52.496;13.456;2024-02-15T12:21:43;9.02;;;5.47;;
25758;SDS011;13604;52.496;13.456;2024-02-15T12:24:08;5.88;;;4.95;;
25758;SDS011;13604;52.496;13.456;2024-02-15T12:26:33;11.75;;;6.00;;
25758;SDS011;13604;52.496;13.456;2024-02-15T12:29:00;8.00;;;4.88;;
25758;SDS011;13604;52.496;13.456;2024-02-15T12:31:26;7.57;;;4.60;;
25758;SDS011;13604;52.496;13.456;2024-02-15T12:34:05;6.35;;;4.38;;
25758;SDS011;13604;52.496;13.456;2024-02-15T12:36:31;9.68;;;5.28;;
25758;SDS011;13604;52.496;13.456;2024-02-15T12:39:02;7.72;;;4.90;;
25758;SDS011;13604;52.496;13.456;2024-02-15T12:41:37;7.55;;;4.38;;
25758;SDS011;13604;52.496;13.456;2024-02-15T12:44:05;9.18;;;5.55;;
25758;SDS011;13604;52.496;13.456;2024-02-15T12:46:32;8.20;;;5.30;;
25758;SDS011;13604;52.496;13.456;2024-02-15T12:49:27;5.95;;;4.55;;
25758;SDS011;13604;52.496;13.456;2024-02-15T12:51:53;5.03;;;3.92;;
25758;SDS011;13604;52.496;13.456;2024-02-15T12:54:21;6.75;;;4.50;;
25758;SDS011;13604;52.496;13.456;2024-02-15T12:56:49;8.30;;;4.78;;
25758;SDS011;13604;52.496;13.456;2024-02-15T12:59:16;8.70;;;5.07;;
25758;SDS011;13604;52.496;13.456;2024-02-15T13:01:41;6.50;;;4.33;;
25758;SDS011;13604;52.496;13.456;2024-02-15T13:04:07;6.47;;;4.07;;
25758;SDS011;13604;52.496;13.456;2024-02-15T13:06:33;5.40;;;4.10;;
25758;SDS011;13604;52.496;13.456;2024-02-15T13:09:00;6.93;;;3.95;;
25758;SDS011;13604;52.496;13.456;2024-02-15T13:11:27;5.90;;;3.78;;
25758;SDS011;13604;52.496;13.456;2024-02-15T13:13:52;5.72;;;3.85;;
25758;SDS011;13604;52.496;13.456;2024-02-15T13:16:17;5.60;;;4.25;;
25758;SDS011;13604;52.496;13.456;2024-02-15T13:18:43;6.70;;;4.35;;
25758;SDS011;13604;52.496;13.456;2024-02-15T13:21:12;7.90;;;4.05;;
25758;SDS011;13604;52.496;13.456;2024-02-15T13:23:37;6.53;;;3.72;;
25758;SDS011;13604;52.496;13.456;2024-02-15T13:26:02;5.85;;;4.13;;
25758;SDS011;13604;52.496;13.456;2024-02-15T13:28:29;6.63;;;4.00;;
25758;SDS011;13604;52.496;13.456;2024-02-15T13:30:55;7.35;;;3.58;;
25758;SDS011;13604;52.496;13.456;2024-02-15T13:33:21;6.80;;;3.75;;
25758;SDS011;13604;52.496;13.456;2024-02-15T13:35:46;7.38;;;4.60;;
25758;SDS011;13604;52.496;13.456;2024-02-15T13:38:14;6.20;;;3.80;;
25758;SDS011;13604;52.496;13.456;2024-02-15T13:40:47;7.65;;;3.90;;
25758;SDS011;13604;52.496;13.456;2024-02-15T13:43:14;6.60;;;3.80;;
25758;SDS011;13604;52.496;13.456;2024-02-15T13:45:41;5.13;;;3.70;;
25758;SDS011;13604;52.496;13.456;2024-02-15T13:48:07;7.07;;;3.78;;
25758;SDS011;13604;52.496;13.456;2024-02-15T13:50:34;8.60;;;3.55;;
25758;SDS011;13604;52.496;13.456;2024-02-15T13:53:00;5.10;;;3.60;;
25758;SDS011;13604;52.496;13.456;2024-02-15T13:55:27;7.03;;;3.60;;
25758;SDS011;13604;52.496;13.456;2024-02-15T13:57:53;5.03;;;3.53;;
25758;SDS011;13604;52.496;13.456;2024-02-15T14:02:34;5.50;;;3.53;;
25758;SDS011;13604;52.496;13.456;2024-02-15T14:04:59;5.57;;;3.47;;
25758;SDS011;13604;52.496;13.456;2024-02-15T14:07:25;6.07;;;3.70;;
25758;SDS011;13604;52.496;13.456;2024-02-15T14:09:50;5.35;;;3.33;;
25758;SDS011;13604;52.496;13.456;2024-02-15T14:12:15;4.50;;;2.80;;
25758;SDS011;13604;52.496;13.456;2024-02-15T14:14:41;6.03;;;2.83;;
25758;SDS011;13604;52.496;13.456;2024-02-15T14:17:07;5.72;;;2.85;;
25758;SDS011;13604;52.496;13.456;2024-02-15T14:19:33;6.50;;;2.67;;
25758;SDS011;13604;52.496;13.456;2024-02-15T14:21:58;4.73;;;2.43;;
25758;SDS011;13604;52.496;13.456;2024-02-15T14:24:23;2.67;;;2.13;;
25758;SDS011;13604;52.496;13.456;2024-02-15T14:26:48;4.20;;;2.70;;
25758;SDS011;13604;52.496;13.456;2024-02-15T14:29:14;5.38;;;2.90;;
25758;SDS011;13604;52.496;13.456;2024-02-15T14:31:39;4.32;;;2.83;;
25758;SDS011;13604;52.496;13.456;2024-02-15T14:34:24;4.00;;;2.55;;
25758;SDS011;13604;52.496;13.456;2024-02-15T14:36:50;7.72;;;2.72;;
25758;SDS011;13604;52.496;13.456;2024-02-15T14:39:16;5.13;;;2.70;;
25758;SDS011;13604;52.496;13.456;2024-02-15T14:41:41;5.07;;;2.70;;